Terminal Aerodrome Forecast
Issued by NWS Sterling, VA

Current Version | Previous Version | Graphics & Text | Print | Product List | Glossary On
Versions: 1 2 3 4 5 6 7 8 9 10 11 12 13 14 15 16 17 18 19 20 21 22 23 24 25 26
000
FTUS41 KLWX 220541
TAFIAD
TAF
KIAD 220541Z 2206/2312 14004KT P6SM OVC035
     FM220700 14004KT P6SM -RA OVC020
     FM220900 VRB03KT 5SM -SHRA OVC008
     FM221300 15004KT 3SM -SHRA OVC003
     FM221800 18005KT P6SM BKN020
     FM230100 25004KT P6SM BKN035
     FM230200 30004KT P6SM SCT040
     FM230500 35005KT P6SM SCT110
     FM231000 35005KT P6SM BKN110=

USA.gov is the U.S. government's official web portal to all federal, state and local government web resources and services.